Northport NY Webcam more information Northport NY Webcam


Visit our other weather sites:

Template documentation
and downloads

And another site



Nearby METAR Reports


Warning: A non-numeric value encountered in /home/portan24/public_html/weather28/metar/wsMetarTxt.php on line 608

Warning: A non-numeric value encountered in /home/portan24/public_html/weather28/metar/wsMetarTxt.php on line 608

Warning: A non-numeric value encountered in /home/portan24/public_html/weather28/metar/wsMetarTxt.php on line 608

Notice: Undefined offset: 1 in /home/portan24/public_html/weather28/metar/wsMetarTxt.php on line 87

Notice: Array to string conversion in /home/portan24/public_html/weather28/metar/wsMetarTxt.php on line 92

Warning: A non-numeric value encountered in /home/portan24/public_html/weather28/metar/wsMetarTxt.php on line 608

Warning: A non-numeric value encountered in /home/portan24/public_html/weather28/metar/wsMetarTxt.php on line 608
   
EBBR - Brussels International Airport, Belgium
Distance from station: W 9 mi
Updated: May 22 2018 7:50 am
Few Clouds  
Few Clouds  
   Wind: varies 2.3 mph
Wind: varies 2.3 mph
Temperature: 73.4°F
Dew Point: 55.4°F
Humidity: 53%
Barometer: 29.91 inHg
Clouds: Few Clouds
Visibility: More than 6 mi
Cloud details: Few Clouds 1280 m
EBBR 221150Z VRB02KT 9999 FEW042 23/13 Q1013 NOSIG
EBBE - Beauvechain (Bevekom), Belgium
Distance from station: SSE 10 mi
Updated: May 22 2018 7:25 am
Partly Cloudy  
Partly Cloudy  
   Wind: varies 2.3 mph
Wind: varies 2.3 mph
Temperature: 73.4°F
Dew Point: 55.4°F
Humidity: 53%
Barometer: 29.91 inHg
Clouds: Partly Cloudy
Visibility: More than 6 mi
Cloud details: Few Clouds 914 m,
Partly Cloudy 6096 m
EBBE 221125Z VRB02KT 9999 FEW030 SCT200 23/13 Q1013 BLU BLU
EBDT - Schaffen, Belgium
Distance from station: ENE 18 mi
Updated: May 22 2018 7:25 am
Partly Cloudy  
Partly Cloudy  
   Wind: NNE 3.5 mph
Wind: NNE 3.5 mph
Temperature: 73.4°F
Dew Point: 57.2°F
Humidity: 57%
Barometer: 29.88 inHg
Clouds: Partly Cloudy
Visibility: More than 6 mi
Cloud details: Few Clouds 1067 m,
Partly Cloudy 6706 m
EBDT 221125Z 03003KT 9999 FEW035 SCT220 23/14 Q1012 BLU BLU
EBAW - Antwerp/Deurne, Belgium
Distance from station: NNW 23 mi
Updated: Dec 31 1969 7:00 pm
NOT Current
  
  
   Wind: Calm
Wind: Calm
EBCI - Charleroi/Gosselies, Belgium
Distance from station: SSW 32 mi
Updated: May 22 2018 7:50 am
Few Clouds  
Few Clouds  
   Wind: WSW 8.1 mph
Wind: WSW 8.1 mph
Temperature: 69.8°F
Dew Point: 55.4°F
Humidity: 60%
Barometer: 29.91 inHg
Clouds: Few Clouds
Visibility: More than 6 mi
Cloud details: Few Clouds 610 m
EBCI 221150Z 24007KT 9999 FEW020 21/13 Q1013 TEMPO 20015G25KT 3000 SHRA SCT020TCU
EBLG - Bierset/Liege, Belgium
Distance from station: ESE 38 mi
Updated: May 22 2018 7:50 am
Few Clouds  
Few Clouds  
   Wind: WNW 6.9 mph
Wind: WNW 6.9 mph
Temperature: 71.6°F
Dew Point: 57.2°F
Humidity: 61%
Barometer: 29.88 inHg
Clouds: Few Clouds
Visibility: More than 6 mi
Cloud details: Few Clouds 1158 m
EBLG 221150Z 30006KT 220V330 9999 FEW038CB 22/14 Q1012 TEMPO 3000 TSRA

Script developed by  Saratoga-weather.org Adapted for the template by  Weerstation Leuven

You find our weather info also at:

Weather Underground

AWEKAS

Citizen Weather Observer Program (CWOP)

Equipment we use:

Weather-station
Davis VP2

Davis VP2